EJA110 KOKC-KMAF
Flight info
| Callsign | EJA110 |
|---|---|
| Flight time | N/A |
| Altitude | 43000 |
| Route | THRPE3 FLECH |
| Aircraft | C700/M-SBDGHM1RWXY/LB2 |
Departure
| Time | 2026-04-10 22:20 |
|---|---|
| Airport | OKC Will Rogers World Airport (KOKC) |
Arrival
| Time | N/A |
|---|---|
| Airport | Midland International Air and Space Port (KMAF) |
| Time | Latitude | Longitude | Altitude | Speed | Heading |
|---|---|---|---|---|---|
| 2026-04-10 21:51 | 35.39655 | -97.58524 | 1287 ft | 0 kts | 41° |
| 2026-04-10 22:14 | 35.39656 | -97.58523 | 1286 ft | 0 kts | 28° |
| 2026-04-10 22:14 | 35.39658 | -97.58524 | 1288 ft | 0 kts | 359° |
| 2026-04-10 22:15 | 35.39661 | -97.58532 | 1288 ft | 2 kts | 285° |
| 2026-04-10 22:15 | 35.39664 | -97.58583 | 1286 ft | 10 kts | 290° |
| 2026-04-10 22:15 | 35.39715 | -97.58666 | 1287 ft | 14 kts | 294° |
| 2026-04-10 22:15 | 35.39804 | -97.58731 | 1287 ft | 17 kts | 359° |
| 2026-04-10 22:16 | 35.39928 | -97.58723 | 1290 ft | 19 kts | 7° |
| 2026-04-10 22:16 | 35.40049 | -97.58666 | 1292 ft | 19 kts | 30° |
| 2026-04-10 22:16 | 35.40169 | -97.58625 | 1295 ft | 18 kts | 359° |
| 2026-04-10 22:16 | 35.40295 | -97.58626 | 1296 ft | 19 kts | 0° |
| 2026-04-10 22:17 | 35.40392 | -97.58626 | 1296 ft | 13 kts | 0° |
| 2026-04-10 22:17 | 35.40464 | -97.58631 | 1296 ft | 7 kts | 351° |
| 2026-04-10 22:17 | 35.40504 | -97.58669 | 1297 ft | 8 kts | 294° |
| 2026-04-10 22:17 | 35.40506 | -97.58742 | 1296 ft | 9 kts | 268° |
| 2026-04-10 22:18 | 35.40506 | -97.58775 | 1296 ft | 0 kts | 269° |
| 2026-04-10 22:19 | 35.40505 | -97.58811 | 1296 ft | 9 kts | 269° |
| 2026-04-10 22:19 | 35.40488 | -97.58889 | 1295 ft | 10 kts | 215° |
| 2026-04-10 22:19 | 35.40420 | -97.58898 | 1295 ft | 12 kts | 179° |
| 2026-04-10 22:19 | 35.40153 | -97.58897 | 1293 ft | 76 kts | 179° |
| 2026-04-10 22:20 | 35.39346 | -97.58899 | 1294 ft | 152 kts | 179° |
| 2026-04-10 22:20 | 35.38159 | -97.58875 | 1723 ft | 195 kts | 178° |
| 2026-04-10 22:20 | 35.36828 | -97.59072 | 2162 ft | 196 kts | 203° |
| 2026-04-10 22:20 | 35.35626 | -97.59827 | 2660 ft | 196 kts | 204° |
| 2026-04-10 22:21 | 35.34375 | -97.60607 | 3168 ft | 201 kts | 204° |
| 2026-04-10 22:21 | 35.33126 | -97.61387 | 3654 ft | 204 kts | 204° |
| 2026-04-10 22:21 | 35.31870 | -97.62159 | 4141 ft | 204 kts | 204° |
| 2026-04-10 22:21 | 35.30596 | -97.62948 | 4635 ft | 205 kts | 204° |
| 2026-04-10 22:22 | 35.29306 | -97.63691 | 5128 ft | 205 kts | 197° |
| 2026-04-10 22:22 | 35.27939 | -97.64229 | 5632 ft | 208 kts | 195° |
| 2026-04-10 22:22 | 35.26476 | -97.64830 | 6164 ft | 235 kts | 199° |
| 2026-04-10 22:22 | 35.24867 | -97.65559 | 6694 ft | 258 kts | 199° |
| 2026-04-10 22:23 | 35.23164 | -97.66334 | 7186 ft | 263 kts | 199° |
| 2026-04-10 22:23 | 35.21403 | -97.67118 | 7674 ft | 272 kts | 199° |
| 2026-04-10 22:23 | 35.19610 | -97.67913 | 8417 ft | 271 kts | 199° |
| 2026-04-10 22:23 | 35.17853 | -97.68697 | 9945 ft | 272 kts | 199° |
| 2026-04-10 22:24 | 35.15997 | -97.69524 | 10729 ft | 297 kts | 200° |
| 2026-04-10 22:24 | 35.14026 | -97.70402 | 11796 ft | 307 kts | 200° |
| 2026-04-10 22:24 | 35.11981 | -97.71313 | 12969 ft | 318 kts | 200° |
| 2026-04-10 22:24 | 35.09864 | -97.72254 | 14136 ft | 326 kts | 201° |
| 2026-04-10 22:25 | 35.07686 | -97.73223 | 14959 ft | 345 kts | 200° |
| 2026-04-10 22:25 | 35.05341 | -97.74268 | 15008 ft | 378 kts | 201° |
| 2026-04-10 22:25 | 35.02839 | -97.75378 | 15008 ft | 376 kts | 201° |
| 2026-04-10 22:25 | 35.00419 | -97.76454 | 14998 ft | 362 kts | 202° |
| 2026-04-10 22:26 | 34.98216 | -97.77804 | 14992 ft | 357 kts | 213° |
| 2026-04-10 22:26 | 34.96246 | -97.79697 | 14992 ft | 362 kts | 224° |
| 2026-04-10 22:26 | 34.94570 | -97.81996 | 14996 ft | 360 kts | 230° |
| 2026-04-10 22:26 | 34.92910 | -97.84234 | 15001 ft | 361 kts | 228° |
| 2026-04-10 22:27 | 34.91226 | -97.86500 | 14997 ft | 361 kts | 229° |
| 2026-04-10 22:27 | 34.89549 | -97.88790 | 14996 ft | 361 kts | 228° |
| 2026-04-10 22:27 | 34.87864 | -97.91067 | 14994 ft | 360 kts | 228° |
| 2026-04-10 22:27 | 34.86173 | -97.93329 | 14990 ft | 365 kts | 228° |
| 2026-04-10 22:28 | 34.84437 | -97.95658 | 16003 ft | 360 kts | 229° |
| 2026-04-10 22:28 | 34.82817 | -97.97837 | 18130 ft | 339 kts | 230° |
| 2026-04-10 22:28 | 34.81227 | -97.99977 | 19011 ft | 350 kts | 229° |
| 2026-04-10 22:28 | 34.79589 | -98.02176 | 20062 ft | 350 kts | 230° |
| 2026-04-10 22:29 | 34.77931 | -98.04399 | 20883 ft | 358 kts | 230° |
| 2026-04-10 22:29 | 34.76246 | -98.06656 | 21793 ft | 361 kts | 230° |
| 2026-04-10 22:29 | 34.74542 | -98.08941 | 22628 ft | 366 kts | 230° |
| 2026-04-10 22:29 | 34.72818 | -98.11250 | 23492 ft | 371 kts | 230° |
| 2026-04-10 22:30 | 34.71193 | -98.13664 | 24209 ft | 375 kts | 234° |
| 2026-04-10 22:30 | 34.69595 | -98.16192 | 24966 ft | 378 kts | 234° |
| 2026-04-10 22:30 | 34.67965 | -98.18740 | 25711 ft | 382 kts | 234° |
| 2026-04-10 22:30 | 34.66315 | -98.21304 | 26428 ft | 386 kts | 234° |
| 2026-04-10 22:31 | 34.64674 | -98.23863 | 27117 ft | 390 kts | 235° |
| 2026-04-10 22:31 | 34.63006 | -98.26470 | 27809 ft | 393 kts | 235° |
| 2026-04-10 22:31 | 34.61315 | -98.29108 | 28500 ft | 397 kts | 235° |
| 2026-04-10 22:31 | 34.59599 | -98.31777 | 29196 ft | 401 kts | 235° |
| 2026-04-10 22:32 | 34.57895 | -98.34427 | 29870 ft | 405 kts | 235° |
| 2026-04-10 22:32 | 34.56147 | -98.37147 | 30530 ft | 408 kts | 235° |
| 2026-04-10 22:32 | 34.54384 | -98.39886 | 31086 ft | 412 kts | 235° |
| 2026-04-10 22:32 | 34.52606 | -98.42647 | 31621 ft | 416 kts | 235° |
| 2026-04-10 22:33 | 34.50834 | -98.45394 | 32137 ft | 419 kts | 235° |
| 2026-04-10 22:33 | 34.49030 | -98.48191 | 32650 ft | 422 kts | 235° |
| 2026-04-10 22:33 | 34.47210 | -98.51009 | 33137 ft | 426 kts | 235° |
| 2026-04-10 22:33 | 34.45380 | -98.53841 | 33761 ft | 425 kts | 235° |
| 2026-04-10 22:34 | 34.43553 | -98.56661 | 34414 ft | 423 kts | 235° |
| 2026-04-10 22:34 | 34.41655 | -98.59391 | 34973 ft | 422 kts | 232° |
| 2026-04-10 22:34 | 34.39762 | -98.62045 | 35515 ft | 420 kts | 234° |
| 2026-04-10 22:34 | 34.37968 | -98.64830 | 36017 ft | 417 kts | 236° |
| 2026-04-10 22:35 | 34.36228 | -98.67637 | 36501 ft | 416 kts | 236° |
| 2026-04-10 22:35 | 34.34431 | -98.70388 | 36954 ft | 415 kts | 234° |
| 2026-04-10 22:35 | 34.32633 | -98.73063 | 37402 ft | 412 kts | 234° |
| 2026-04-10 22:35 | 34.30855 | -98.75765 | 37906 ft | 409 kts | 235° |
| 2026-04-10 22:36 | 34.29104 | -98.78474 | 38274 ft | 408 kts | 235° |
| 2026-04-10 22:36 | 34.27348 | -98.81164 | 38625 ft | 407 kts | 235° |
| 2026-04-10 22:36 | 34.25583 | -98.83837 | 38924 ft | 406 kts | 235° |
| 2026-04-10 22:36 | 34.23823 | -98.86509 | 39182 ft | 405 kts | 235° |
| 2026-04-10 22:37 | 34.22078 | -98.89172 | 39428 ft | 404 kts | 235° |
| 2026-04-10 22:37 | 34.20321 | -98.91831 | 39621 ft | 404 kts | 235° |
| 2026-04-10 22:37 | 34.18266 | -98.93771 | 38178 ft | 327 kts | 213° |
| 2026-04-10 22:37 | 34.16502 | -98.94889 | 31515 ft | 282 kts | 271° |